createdAt,value
2023-01-29T00:01:23.581Z,39.03
2023-01-29T00:03:51.670Z,39.78
2023-01-29T00:06:18.955Z,41.90
2023-01-29T00:08:47.568Z,43.10
2023-01-29T00:11:14.227Z,40.55
2023-01-29T00:13:43.516Z,40.45
2023-01-29T00:16:10.423Z,39.40
2023-01-29T00:18:38.563Z,42.03
2023-01-29T00:21:09.186Z,38.28
2023-01-29T00:23:35.854Z,36.10
2023-01-29T00:26:04.073Z,35.88
2023-01-29T00:28:30.906Z,42.28
2023-01-29T00:30:57.724Z,43.60
2023-01-29T00:33:24.538Z,40.22
2023-01-29T00:35:52.189Z,37.88
2023-01-29T00:38:18.950Z,38.47
2023-01-29T00:40:45.908Z,40.92
2023-01-29T00:43:14.460Z,41.03
2023-01-29T00:45:41.187Z,43.17
2023-01-29T00:48:08.044Z,41.50
2023-01-29T00:50:34.842Z,41.58
2023-01-29T00:53:01.513Z,42.80
2023-01-29T00:55:28.359Z,41.13
2023-01-29T00:57:55.015Z,39.05
2023-01-29T01:00:23.122Z,42.40
2023-01-29T01:02:49.991Z,40.85
2023-01-29T01:05:18.867Z,40.58
2023-01-29T01:07:46.487Z,44.88
2023-01-29T01:10:16.263Z,46.35
2023-01-29T01:12:44.676Z,43.97
2023-01-29T01:15:11.786Z,48.60
2023-01-29T01:17:39.897Z,39.95
2023-01-29T01:20:07.587Z,41.85
2023-01-29T01:22:34.223Z,48.22
2023-01-29T01:25:01.021Z,41.08
2023-01-29T01:27:27.892Z,41.95
2023-01-29T01:29:54.760Z,39.50
2023-01-29T01:32:21.459Z,41.85
2023-01-29T01:34:52.641Z,43.17
2023-01-29T01:37:19.537Z,42.65
2023-01-29T01:39:46.470Z,41.70
2023-01-29T01:42:13.463Z,44.55
2023-01-29T01:44:56.248Z,42.60
2023-01-29T01:47:29.914Z,45.10
2023-01-29T01:50:03.264Z,46.25
2023-01-29T01:52:32.224Z,42.78
2023-01-29T01:55:00.384Z,44.40
2023-01-29T01:57:30.069Z,48.28
2023-01-29T01:59:59.962Z,43.15
2023-01-29T02:02:27.605Z,46.25
2023-01-29T02:04:55.442Z,44.05
2023-01-29T02:07:23.524Z,48.15
2023-01-29T02:09:53.130Z,45.00
2023-01-29T02:12:22.390Z,51.97
2023-01-29T02:14:51.401Z,54.58
2023-01-29T02:17:19.992Z,55.60
2023-01-29T02:19:53.065Z,58.05
2023-01-29T02:23:02.555Z,60.75
2023-01-29T02:25:54.376Z,56.53
2023-01-29T02:28:32.064Z,51.58
2023-01-29T02:31:06.810Z,52.53
2023-01-29T02:33:41.689Z,52.38
2023-01-29T02:36:18.794Z,48.28
2023-01-29T02:38:50.761Z,48.30
2023-01-29T02:41:26.452Z,46.83
2023-01-29T02:44:02.847Z,42.70
2023-01-29T02:46:35.703Z,43.97
2023-01-29T02:49:11.570Z,46.85
2023-01-29T02:51:43.309Z,46.05
2023-01-29T02:54:16.921Z,47.38
2023-01-29T02:56:52.066Z,47.10
2023-01-29T02:59:23.674Z,42.08
2023-01-29T03:01:56.068Z,47.47
2023-01-29T03:04:29.195Z,44.25
2023-01-29T03:07:00.722Z,45.45
2023-01-29T03:09:34.287Z,49.75
2023-01-29T03:12:09.079Z,48.88
2023-01-29T03:14:40.119Z,47.15
2023-01-29T03:17:07.755Z,45.35
2023-01-29T03:19:40.313Z,45.85
2023-01-29T03:22:17.373Z,45.65
2023-01-29T03:24:46.820Z,49.50
2023-01-29T03:27:17.404Z,43.33
2023-01-29T03:29:48.819Z,50.72
2023-01-29T03:32:17.959Z,45.28
2023-01-29T03:34:53.928Z,47.83
2023-01-29T03:37:27.437Z,47.28
2023-01-29T03:39:54.157Z,46.63
2023-01-29T03:42:26.489Z,49.17
2023-01-29T03:45:03.377Z,47.20
2023-01-29T03:47:45.924Z,48.60
2023-01-29T03:50:24.894Z,48.22
2023-01-29T03:53:01.448Z,48.40
2023-01-29T03:55:35.160Z,47.28
2023-01-29T03:58:08.750Z,48.05
2023-01-29T04:03:12.959Z,44.92
2023-01-29T04:05:47.228Z,48.63
2023-01-29T04:08:23.763Z,46.53
2023-01-29T04:10:54.669Z,45.30
2023-01-29T04:13:23.235Z,50.03
2023-01-29T04:15:56.803Z,45.63
2023-01-29T04:18:40.778Z,50.63
2023-01-29T04:21:10.361Z,45.72
2023-01-29T04:23:37.003Z,52.80
2023-01-29T04:26:21.194Z,44.78
2023-01-29T04:28:59.450Z,52.92
2023-01-29T04:31:33.604Z,47.95
2023-01-29T04:34:14.722Z,51.10
2023-01-29T04:36:52.540Z,48.95
2023-01-29T04:39:25.014Z,51.15
2023-01-29T04:41:59.162Z,50.17
2023-01-29T04:44:36.048Z,54.42
2023-01-29T04:47:16.969Z,55.65
2023-01-29T04:49:47.322Z,53.40
2023-01-29T04:52:21.836Z,49.70
2023-01-29T04:54:58.823Z,53.58
2023-01-29T04:57:29.452Z,55.15
2023-01-29T05:00:01.576Z,58.28
2023-01-29T05:02:31.920Z,55.03
2023-01-29T05:04:59.146Z,53.25
2023-01-29T05:07:28.691Z,59.60
2023-01-29T05:09:56.170Z,54.40
2023-01-29T05:12:27.084Z,54.30
2023-01-29T05:14:57.803Z,58.65
2023-01-29T05:17:24.650Z,57.13
2023-01-29T05:19:52.656Z,56.50
2023-01-29T05:22:19.744Z,57.30
2023-01-29T05:24:46.388Z,59.22
2023-01-29T05:27:18.547Z,62.97
2023-01-29T05:29:46.941Z,55.40
2023-01-29T05:32:13.567Z,53.33
2023-01-29T05:34:40.523Z,57.65
2023-01-29T05:37:09.283Z,58.03
2023-01-29T05:39:36.132Z,56.65
2023-01-29T05:42:02.852Z,54.15
2023-01-29T05:44:29.488Z,56.53
2023-01-29T05:46:56.073Z,55.03
2023-01-29T05:49:22.850Z,62.63
2023-01-29T05:51:49.924Z,66.22
2023-01-29T05:54:17.882Z,59.45
2023-01-29T05:56:44.540Z,53.92
2023-01-29T05:59:11.327Z,59.17
2023-01-29T06:01:38.018Z,54.75
2023-01-29T06:04:04.844Z,55.95
2023-01-29T06:06:31.506Z,58.40
2023-01-29T06:08:58.235Z,57.45
2023-01-29T06:11:26.226Z,57.28
2023-01-29T06:13:53.360Z,58.65
2023-01-29T06:16:20.046Z,60.50
2023-01-29T06:18:46.653Z,58.25
2023-01-29T06:21:14.059Z,61.92
2023-01-29T06:23:41.282Z,54.05
2023-01-29T06:26:10.937Z,51.70
2023-01-29T06:28:39.263Z,55.08
2023-01-29T06:31:24.339Z,51.50
2023-01-29T06:33:54.187Z,52.97
2023-01-29T06:36:20.842Z,55.00
2023-01-29T06:38:47.850Z,55.08
2023-01-29T06:41:18.165Z,59.53
2023-01-29T06:43:46.777Z,53.08
2023-01-29T06:46:14.065Z,52.08
2023-01-29T06:48:41.890Z,50.38
2023-01-29T06:51:10.205Z,49.67
2023-01-29T06:53:38.031Z,54.33
2023-01-29T06:56:05.719Z,50.65
2023-01-29T06:58:32.410Z,54.15
2023-01-29T07:01:04.878Z,55.67
2023-01-29T07:03:31.845Z,51.50
2023-01-29T07:05:58.582Z,48.72
2023-01-29T07:08:25.251Z,49.85
2023-01-29T07:10:51.946Z,48.53
2023-01-29T07:13:18.768Z,52.35
2023-01-29T07:15:45.479Z,52.75
2023-01-29T07:18:13.564Z,49.65
2023-01-29T07:20:41.382Z,52.85
2023-01-29T07:23:11.816Z,52.15
2023-01-29T07:25:38.806Z,47.17
2023-01-29T07:28:06.161Z,48.35
2023-01-29T07:30:34.186Z,51.53
2023-01-29T07:33:06.432Z,49.58
2023-01-29T07:35:38.605Z,50.05
2023-01-29T07:38:05.700Z,49.28
2023-01-29T07:40:32.302Z,49.13
2023-01-29T07:42:59.235Z,48.30
2023-01-29T07:45:26.804Z,50.85
2023-01-29T07:47:53.903Z,52.78
2023-01-29T07:50:20.713Z,53.15
2023-01-29T07:52:48.748Z,50.63
2023-01-29T07:55:15.886Z,51.80
2023-01-29T07:57:42.686Z,51.10
2023-01-29T08:00:10.667Z,53.38
2023-01-29T08:02:40.569Z,50.60
2023-01-29T08:05:08.525Z,53.72
2023-01-29T08:07:35.280Z,54.45
2023-01-29T08:10:03.588Z,53.42
2023-01-29T08:12:30.351Z,53.08
2023-01-29T08:14:57.007Z,53.28
2023-01-29T08:17:23.570Z,56.20
2023-01-29T08:19:50.175Z,50.75
2023-01-29T08:22:16.856Z,55.40
2023-01-29T08:24:53.721Z,54.53
2023-01-29T08:29:54.470Z,55.42
2023-01-29T08:32:21.129Z,55.45
2023-01-29T08:34:47.744Z,54.08
2023-01-29T08:37:14.403Z,56.83
2023-01-29T08:42:08.815Z,53.60
2023-01-29T08:44:36.716Z,54.95
2023-01-29T08:47:03.737Z,58.55
2023-01-29T08:49:30.274Z,61.50
2023-01-29T08:51:56.910Z,54.00
2023-01-29T08:54:23.828Z,61.50
2023-01-29T08:56:50.748Z,57.03
2023-01-29T08:59:17.539Z,61.05
2023-01-29T09:01:45.551Z,57.15
2023-01-29T09:04:12.180Z,52.33
2023-01-29T09:06:38.844Z,59.75
2023-01-29T09:09:05.584Z,60.03
2023-01-29T09:11:32.472Z,60.65
2023-01-29T09:13:59.277Z,58.63
2023-01-29T09:16:26.227Z,59.42
2023-01-29T09:18:54.318Z,61.20
2023-01-29T09:21:21.194Z,60.25
2023-01-29T09:23:47.800Z,62.63
2023-01-29T09:26:14.798Z,62.30
2023-01-29T09:28:41.547Z,57.70
2023-01-29T09:31:08.231Z,60.33
2023-01-29T09:33:34.914Z,56.55
2023-01-29T09:36:04.696Z,62.45
2023-01-29T09:38:31.569Z,62.22
2023-01-29T09:41:08.625Z,62.28
2023-01-29T09:43:42.947Z,65.45
2023-01-29T09:46:19.817Z,59.92
2023-01-29T09:48:51.405Z,61.45
2023-01-29T09:51:29.019Z,59.38
2023-01-29T09:54:02.346Z,60.53
2023-01-29T09:56:29.276Z,60.28
2023-01-29T09:59:00.544Z,64.82
2023-01-29T10:01:36.806Z,61.20
2023-01-29T10:04:31.194Z,61.38
2023-01-29T10:07:13.304Z,58.45
2023-01-29T10:09:49.522Z,58.22
2023-01-29T10:12:33.985Z,60.95
2023-01-29T10:15:11.317Z,59.00
2023-01-29T10:17:52.778Z,54.80
2023-01-29T10:20:46.202Z,58.75
2023-01-29T10:23:24.522Z,57.17
2023-01-29T10:25:52.086Z,57.45
2023-01-29T10:28:22.894Z,55.78
2023-01-29T10:30:51.293Z,59.70
2023-01-29T10:33:25.363Z,55.95
2023-01-29T10:35:56.732Z,55.17
2023-01-29T10:38:36.931Z,57.13
2023-01-29T10:41:18.139Z,55.42
2023-01-29T10:43:56.130Z,54.28
2023-01-29T10:46:32.481Z,50.47
2023-01-29T10:49:10.180Z,58.13
2023-01-29T10:51:53.847Z,56.50
2023-01-29T10:54:46.651Z,52.88
2023-01-29T10:57:27.231Z,55.63
2023-01-29T11:00:04.907Z,52.88
2023-01-29T11:02:33.695Z,57.50
2023-01-29T11:05:00.613Z,51.85
2023-01-29T11:07:27.933Z,53.30
2023-01-29T11:10:02.807Z,55.03
2023-01-29T11:12:31.108Z,50.95
2023-01-29T11:15:03.964Z,51.20
2023-01-29T11:17:30.620Z,53.35
2023-01-29T11:19:57.403Z,56.03
2023-01-29T11:22:25.765Z,51.25
2023-01-29T11:27:47.570Z,51.88
2023-01-29T11:30:19.864Z,55.60
2023-01-29T11:32:50.641Z,52.05
2023-01-29T11:35:25.240Z,52.58
2023-01-29T11:37:51.939Z,53.20
2023-01-29T11:40:40.014Z,52.70
2023-01-29T11:43:22.619Z,51.80
2023-01-29T11:45:51.427Z,52.72
2023-01-29T11:48:20.645Z,54.38
2023-01-29T11:50:57.197Z,58.88
2023-01-29T11:53:34.786Z,55.88
2023-01-29T11:56:06.027Z,50.85
2023-01-29T11:58:35.745Z,49.40
2023-01-29T12:01:03.651Z,53.08
2023-01-29T12:03:35.838Z,49.38
2023-01-29T12:06:07.023Z,52.65
2023-01-29T12:08:38.389Z,53.45
2023-01-29T12:11:11.325Z,52.97
2023-01-29T12:16:23.599Z,51.03
2023-01-29T12:18:54.243Z,50.25
2023-01-29T12:21:29.834Z,51.47
2023-01-29T12:24:03.427Z,46.38
2023-01-29T12:26:34.070Z,49.20
2023-01-29T12:29:23.955Z,50.53
2023-01-29T12:32:00.229Z,49.55
2023-01-29T12:34:35.944Z,45.60
2023-01-29T12:37:11.604Z,49.47
2023-01-29T12:39:38.262Z,51.22
2023-01-29T12:42:14.366Z,48.97
2023-01-29T12:44:46.136Z,46.20
2023-01-29T12:47:19.504Z,51.47
2023-01-29T12:49:51.270Z,50.55
2023-01-29T12:52:22.329Z,48.42
2023-01-29T12:54:56.257Z,45.10
2023-01-29T12:57:26.069Z,48.53
2023-01-29T13:00:01.209Z,46.17
2023-01-29T13:02:35.039Z,48.35
2023-01-29T13:05:07.334Z,45.22
2023-01-29T13:07:39.853Z,47.13
2023-01-29T13:10:12.650Z,48.78
2023-01-29T13:15:20.823Z,43.00
2023-01-29T13:17:52.204Z,43.92
2023-01-29T13:20:24.127Z,45.55
2023-01-29T13:22:54.001Z,41.07
2023-01-29T13:25:23.735Z,45.45
2023-01-29T13:27:50.763Z,42.88
2023-01-29T13:30:33.978Z,42.20
2023-01-29T13:35:30.207Z,44.92
2023-01-29T13:37:56.976Z,41.58
2023-01-29T13:40:25.625Z,42.65
2023-01-29T13:42:53.628Z,47.83
2023-01-29T13:45:22.511Z,41.58
2023-01-29T13:47:52.259Z,41.45
2023-01-29T13:50:24.738Z,46.08
2023-01-29T13:52:56.978Z,42.53
2023-01-29T13:55:27.803Z,45.45
2023-01-29T13:57:56.250Z,39.92
2023-01-29T14:00:56.735Z,37.65
2023-01-29T14:04:05.594Z,38.03
2023-01-29T14:06:50.820Z,39.38
2023-01-29T14:09:34.883Z,34.95
2023-01-29T14:12:01.808Z,37.53
2023-01-29T14:15:00.933Z,40.35
2023-01-29T14:17:28.890Z,38.80
2023-01-29T14:20:02.346Z,38.38
2023-01-29T14:22:30.667Z,34.78
2023-01-29T14:25:01.665Z,37.80
2023-01-29T14:27:29.615Z,33.45
2023-01-29T14:30:00.767Z,36.45
2023-01-29T14:32:27.757Z,34.38
2023-01-29T14:35:00.935Z,32.03
2023-01-29T14:37:33.236Z,31.90
2023-01-29T14:40:14.146Z,32.72
2023-01-29T14:42:50.005Z,38.95
2023-01-29T14:45:24.578Z,33.95
2023-01-29T14:48:00.037Z,37.72
2023-01-29T14:50:53.421Z,34.78
2023-01-29T14:53:25.264Z,33.70
2023-01-29T14:55:57.632Z,36.27
2023-01-29T14:58:32.985Z,33.83
2023-01-29T15:01:01.197Z,34.03
2023-01-29T15:03:35.711Z,35.35
2023-01-29T15:06:04.861Z,36.05
2023-01-29T15:08:38.863Z,36.13
2023-01-29T15:11:12.274Z,40.50
2023-01-29T15:13:48.117Z,34.88
2023-01-29T15:16:17.479Z,39.28
2023-01-29T15:18:44.236Z,36.53
2023-01-29T15:21:14.233Z,42.65
2023-01-29T15:23:41.364Z,35.47
2023-01-29T15:26:11.487Z,40.53
2023-01-29T15:28:39.353Z,37.85
2023-01-29T15:31:11.931Z,39.20
2023-01-29T15:33:42.588Z,39.58
2023-01-29T15:36:20.255Z,37.47
2023-01-29T15:38:47.023Z,37.40
2023-01-29T15:41:18.019Z,38.47
2023-01-29T15:43:46.754Z,40.22
2023-01-29T15:46:20.724Z,38.90
2023-01-29T15:48:49.160Z,42.90
2023-01-29T15:51:19.809Z,39.22
2023-01-29T15:53:50.776Z,39.78
2023-01-29T15:56:19.924Z,41.55
2023-01-29T15:58:48.446Z,41.13
2023-01-29T16:01:15.835Z,39.45
2023-01-29T16:03:43.079Z,39.10
2023-01-29T16:06:10.246Z,38.25
2023-01-29T16:08:42.267Z,36.85
2023-01-29T16:11:09.598Z,37.53
2023-01-29T16:13:41.114Z,37.25
2023-01-29T16:16:20.469Z,35.65
2023-01-29T16:18:59.198Z,36.85
2023-01-29T16:21:30.525Z,39.05
2023-01-29T16:24:01.202Z,39.38
2023-01-29T16:26:31.629Z,39.65
2023-01-29T16:29:04.138Z,35.75
2023-01-29T16:31:32.527Z,37.58
2023-01-29T16:34:05.796Z,38.67
2023-01-29T16:36:32.554Z,37.17
2023-01-29T16:39:04.446Z,34.47
2023-01-29T16:41:32.323Z,42.15
2023-01-29T16:44:01.596Z,34.60
2023-01-29T16:46:35.854Z,36.33
2023-01-29T16:49:22.850Z,37.40
2023-01-29T16:51:49.546Z,37.17
2023-01-29T16:54:20.502Z,34.53
2023-01-29T16:56:48.899Z,36.50
2023-01-29T16:59:20.076Z,38.30
2023-01-29T17:01:48.497Z,35.83
2023-01-29T17:04:18.326Z,35.45
2023-01-29T17:06:47.598Z,34.67
2023-01-29T17:09:22.652Z,35.58
2023-01-29T17:11:54.866Z,37.20
2023-01-29T17:14:23.625Z,34.95
2023-01-29T17:16:53.242Z,34.42
2023-01-29T17:19:20.722Z,35.03
2023-01-29T17:21:47.682Z,36.17
2023-01-29T17:24:14.395Z,33.22
2023-01-29T17:26:42.590Z,34.35
2023-01-29T17:29:13.972Z,35.53
2023-01-29T17:31:40.734Z,33.78
2023-01-29T17:34:10.801Z,37.53
2023-01-29T17:36:37.505Z,37.53
2023-01-29T17:39:14.903Z,35.10
2023-01-29T17:41:46.588Z,36.30
2023-01-29T17:44:14.190Z,34.65
2023-01-29T17:46:40.813Z,33.28
2023-01-29T17:49:21.354Z,31.48
2023-01-29T17:51:47.949Z,32.72
2023-01-29T17:54:14.606Z,37.20
2023-01-29T17:56:42.818Z,35.70
2023-01-29T17:59:13.902Z,37.50
2023-01-29T18:01:40.535Z,32.20
2023-01-29T18:04:07.328Z,37.40
2023-01-29T18:06:34.093Z,32.78
2023-01-29T18:09:01.210Z,32.67
2023-01-29T18:11:28.201Z,33.45
2023-01-29T18:13:56.859Z,32.75
2023-01-29T18:16:25.259Z,35.10
2023-01-29T18:18:52.844Z,38.67
2023-01-29T18:21:19.641Z,33.40
2023-01-29T18:23:46.297Z,32.70
2023-01-29T18:26:15.883Z,34.25
2023-01-29T18:28:42.460Z,33.10
2023-01-29T18:31:13.731Z,32.25
2023-01-29T18:33:40.820Z,35.78
2023-01-29T18:36:08.484Z,28.70
2023-01-29T18:38:35.239Z,34.63
2023-01-29T18:41:05.602Z,35.17
2023-01-29T18:43:32.310Z,32.55
2023-01-29T18:45:59.151Z,33.08
2023-01-29T18:48:27.197Z,35.45
2023-01-29T18:50:53.800Z,30.95
2023-01-29T18:53:20.605Z,33.80
2023-01-29T18:55:54.605Z,33.03
2023-01-29T18:58:28.591Z,37.15
2023-01-29T19:01:02.660Z,27.88
2023-01-29T19:03:30.675Z,33.90
2023-01-29T19:06:00.472Z,32.22
2023-01-29T19:08:27.062Z,35.42
2023-01-29T19:10:53.683Z,37.63
2023-01-29T19:13:20.267Z,35.45
2023-01-29T19:15:46.876Z,37.33
2023-01-29T19:18:14.768Z,36.13
2023-01-29T19:20:42.826Z,34.70
2023-01-29T19:23:09.520Z,36.45
2023-01-29T19:25:37.387Z,33.58
2023-01-29T19:28:04.100Z,33.60
2023-01-29T19:30:30.650Z,37.40
2023-01-29T19:32:57.327Z,35.20
2023-01-29T19:35:23.938Z,31.63
2023-01-29T19:37:51.912Z,35.58
2023-01-29T19:40:18.692Z,34.70
2023-01-29T19:42:45.325Z,34.53
2023-01-29T19:45:12.006Z,35.22
2023-01-29T19:47:39.787Z,37.08
2023-01-29T19:50:07.272Z,39.08
2023-01-29T19:52:49.735Z,37.42
2023-01-29T19:55:20.008Z,34.40
2023-01-29T19:57:47.283Z,34.03
2023-01-29T20:00:14.849Z,37.92
2023-01-29T20:02:41.466Z,31.65
2023-01-29T20:05:08.437Z,34.00
2023-01-29T20:07:35.106Z,35.30
2023-01-29T20:10:01.749Z,37.90
2023-01-29T20:12:29.720Z,36.83
2023-01-29T20:14:56.358Z,38.38
2023-01-29T20:17:22.965Z,35.50
2023-01-29T20:19:49.531Z,35.70
2023-01-29T20:22:16.149Z,32.45
2023-01-29T20:24:42.846Z,36.50
2023-01-29T20:27:10.369Z,36.38
2023-01-29T20:29:38.954Z,35.65
2023-01-29T20:32:06.733Z,35.28
2023-01-29T20:34:33.693Z,39.20
2023-01-29T20:37:00.460Z,37.00
2023-01-29T20:39:27.045Z,33.58
2023-01-29T20:41:53.739Z,33.83
2023-01-29T20:44:20.304Z,34.47
2023-01-29T20:46:48.367Z,41.67
2023-01-29T20:49:14.917Z,36.00
2023-01-29T20:51:42.753Z,35.08
2023-01-29T20:54:09.281Z,38.72
2023-01-29T20:56:37.587Z,41.03
2023-01-29T20:59:09.002Z,36.83
2023-01-29T21:01:35.969Z,36.72
2023-01-29T21:04:04.137Z,33.58
2023-01-29T21:06:30.837Z,37.90
2023-01-29T21:08:57.518Z,36.38
2023-01-29T21:11:24.322Z,36.28
2023-01-29T21:13:50.945Z,37.25
2023-01-29T21:16:17.528Z,35.15
2023-01-29T21:18:44.171Z,35.80
2023-01-29T21:21:12.104Z,34.97
2023-01-29T21:23:38.655Z,39.80
2023-01-29T21:26:06.528Z,35.95
2023-01-29T21:28:34.377Z,36.70
2023-01-29T21:31:05.427Z,38.67
2023-01-29T21:33:32.163Z,39.60
2023-01-29T21:35:59.252Z,37.03
2023-01-29T21:38:27.356Z,35.63
2023-01-29T21:40:59.039Z,40.08
2023-01-29T21:43:25.735Z,38.47
2023-01-29T21:45:55.689Z,35.97
2023-01-29T21:48:22.490Z,40.40
2023-01-29T21:50:49.127Z,33.55
2023-01-29T21:53:15.804Z,43.30
2023-01-29T21:55:43.706Z,38.85
2023-01-29T21:58:11.500Z,38.35
2023-01-29T22:00:40.041Z,44.63
2023-01-29T22:03:06.785Z,41.78
2023-01-29T22:05:33.368Z,41.78
2023-01-29T22:07:59.988Z,38.25
2023-01-29T22:10:26.912Z,41.80
2023-01-29T22:12:54.907Z,38.33
2023-01-29T22:15:23.605Z,47.92
2023-01-29T22:17:50.981Z,43.63
2023-01-29T22:20:18.419Z,44.42
2023-01-29T22:22:45.390Z,45.83
2023-01-29T22:25:12.070Z,40.90
2023-01-29T22:27:38.639Z,46.30
2023-01-29T22:30:08.275Z,38.88
2023-01-29T22:32:35.142Z,44.22
2023-01-29T22:35:01.759Z,41.15
2023-01-29T22:37:28.349Z,52.63
2023-01-29T22:39:54.884Z,40.63
2023-01-29T22:42:21.458Z,46.33
2023-01-29T22:44:48.058Z,50.97
2023-01-29T22:47:16.117Z,40.38
2023-01-29T22:49:42.791Z,41.75
2023-01-29T22:52:09.360Z,45.88
2023-01-29T22:54:36.576Z,44.78
2023-01-29T22:57:03.576Z,39.70
2023-01-29T22:59:30.234Z,41.80
2023-01-29T23:01:57.641Z,40.47
2023-01-29T23:04:25.606Z,43.70
2023-01-29T23:06:52.401Z,42.83
2023-01-29T23:09:19.032Z,44.00
2023-01-29T23:11:45.724Z,46.00
2023-01-29T23:14:12.322Z,41.78
2023-01-29T23:16:38.967Z,43.00
2023-01-29T23:19:05.511Z,43.10
2023-01-29T23:21:33.820Z,43.55
2023-01-29T23:24:00.388Z,42.95
2023-01-29T23:26:27.503Z,37.25
2023-01-29T23:28:54.085Z,45.78
2023-01-29T23:31:20.769Z,43.25
2023-01-29T23:33:47.534Z,42.30
2023-01-29T23:36:14.272Z,40.80
2023-01-29T23:38:42.296Z,42.90
2023-01-29T23:41:09.030Z,42.55
2023-01-29T23:43:35.631Z,42.53
2023-01-29T23:46:02.249Z,45.92
2023-01-29T23:48:28.836Z,40.35
2023-01-29T23:50:55.472Z,42.40
2023-01-29T23:53:22.114Z,42.63
2023-01-29T23:55:57.537Z,41.63
2023-01-29T23:58:24.827Z,45.67
